Weather at Badajoz Airport

Public forecast

Using degrees Celsius for public forecast. Weather courtesy of forecast.io.

Current aviation weather report (METAR) for Badajoz Airport

Report is more than 6 hours old.

2024/05/27 19:00 (retrieved 9 hours ago)

LEBZ 271900Z 32004KT CAVOK 29/05 Q1015

Closest aviation forecast (TAF) to Badajoz Airport

Forecast is more than 6 hours old.

Closest forecast is Ovar Air Base, 147.8 nm (273.7 km) NW.

2024/05/27 20:06 Ammendment (retrieved 8 hours ago)

TAF AMD TAF AMD LPOV 272003Z 2720/2818 CNL